createdAt,value
2022-11-20T00:00:59.483Z,3.43
2022-11-20T00:03:33.857Z,3.70
2022-11-20T00:06:07.200Z,3.20
2022-11-20T00:11:41.618Z,3.67
2022-11-20T00:14:15.245Z,2.40
2022-11-20T00:17:03.510Z,3.13
2022-11-20T00:22:42.477Z,4.63
2022-11-20T00:25:25.703Z,3.10
2022-11-20T00:27:58.458Z,5.63
2022-11-20T00:30:33.417Z,4.17
2022-11-20T00:33:06.779Z,3.23
2022-11-20T00:38:43.789Z,4.90
2022-11-20T00:41:21.541Z,2.73
2022-11-20T00:43:56.336Z,3.60
2022-11-20T00:46:41.075Z,3.07
2022-11-20T00:49:12.965Z,6.67
2022-11-20T00:51:45.645Z,4.13
2022-11-20T00:54:15.266Z,3.63
2022-11-20T00:56:45.232Z,3.33
2022-11-20T00:59:14.990Z,2.90
2022-11-20T01:01:56.948Z,3.63
2022-11-20T01:04:26.794Z,4.23
2022-11-20T01:07:01.964Z,3.67
2022-11-20T01:09:31.274Z,3.40
2022-11-20T01:12:19.469Z,4.00
2022-11-20T01:18:11.445Z,3.63
2022-11-20T01:24:01.110Z,4.97
2022-11-20T01:26:50.195Z,3.33
2022-11-20T01:32:24.617Z,3.47
2022-11-20T01:37:50.735Z,3.80
2022-11-20T01:46:31.512Z,4.10
2022-11-20T01:49:17.596Z,2.80
2022-11-20T01:51:57.737Z,4.83
2022-11-20T02:20:03.597Z,5.80
2022-11-20T02:22:49.767Z,3.40
2022-11-20T02:25:35.894Z,3.70
2022-11-20T02:30:42.055Z,2.77
2022-11-20T02:33:16.174Z,4.47
2022-11-20T02:35:54.796Z,2.63
2022-11-20T02:38:29.281Z,3.87
2022-11-20T02:44:13.591Z,3.50
2022-11-20T02:46:45.366Z,3.70
2022-11-20T02:49:29.323Z,3.53
2022-11-20T02:52:21.822Z,3.87
2022-11-20T02:57:39.390Z,4.53
2022-11-20T03:03:00.534Z,3.10
2022-11-20T03:08:15.114Z,3.10
2022-11-20T03:10:45.646Z,5.17
2022-11-20T03:13:20.356Z,4.83
2022-11-20T03:15:54.900Z,3.93
2022-11-20T03:18:33.941Z,4.97
2022-11-20T03:21:04.677Z,4.77
2022-11-20T03:23:45.891Z,3.33
2022-11-20T03:26:17.463Z,3.10
2022-11-20T03:28:52.017Z,6.00
2022-11-20T03:31:26.054Z,4.97
2022-11-20T03:33:55.176Z,3.60
2022-11-20T03:39:18.905Z,4.20
2022-11-20T03:41:56.598Z,4.43
2022-11-20T03:44:32.317Z,3.77
2022-11-20T03:47:19.088Z,3.90
2022-11-20T03:49:48.708Z,2.87
2022-11-20T03:52:19.738Z,3.20
2022-11-20T03:54:52.382Z,2.43
2022-11-20T03:57:21.771Z,2.83
2022-11-20T03:59:54.295Z,5.13
2022-11-20T04:02:23.700Z,3.27
2022-11-20T04:04:55.102Z,2.40
2022-11-20T04:07:38.115Z,3.20
2022-11-20T04:10:12.201Z,4.67
2022-11-20T04:12:41.925Z,3.67
2022-11-20T04:15:16.642Z,4.80
2022-11-20T04:20:45.958Z,3.03
2022-11-20T04:23:15.208Z,2.83
2022-11-20T04:25:44.699Z,3.37
2022-11-20T04:28:16.701Z,3.93
2022-11-20T04:30:49.859Z,5.67
2022-11-20T04:33:21.778Z,3.70
2022-11-20T04:35:52.689Z,3.37
2022-11-20T04:38:22.014Z,3.73
2022-11-20T04:40:57.277Z,4.13
2022-11-20T04:43:26.811Z,3.93
2022-11-20T04:45:58.535Z,3.47
2022-11-20T04:48:29.042Z,3.17
2022-11-20T04:51:12.707Z,3.20
2022-11-20T04:53:41.735Z,2.83
2022-11-20T04:56:12.683Z,2.93
2022-11-20T04:58:42.883Z,4.40
2022-11-20T05:01:15.900Z,2.60
2022-11-20T05:03:47.153Z,2.80
2022-11-20T05:06:22.322Z,3.83
2022-11-20T05:08:53.468Z,2.30
2022-11-20T05:11:26.630Z,2.40
2022-11-20T05:13:57.028Z,2.83
2022-11-20T05:16:28.934Z,6.23
2022-11-20T05:18:59.354Z,3.40
2022-11-20T05:21:43.463Z,4.60
2022-11-20T05:24:13.196Z,4.33
2022-11-20T05:26:58.963Z,3.20
2022-11-20T05:32:18.672Z,3.27
2022-11-20T05:37:57.216Z,3.53
2022-11-20T05:40:29.070Z,3.37
2022-11-20T05:45:58.317Z,3.93
2022-11-20T05:48:52.628Z,2.60
2022-11-20T05:51:29.753Z,2.93
2022-11-20T05:54:01.108Z,3.60
2022-11-20T05:56:33.926Z,3.20
2022-11-20T05:59:08.951Z,4.57
2022-11-20T06:01:42.212Z,3.87
2022-11-20T06:04:12.625Z,3.27
2022-11-20T06:06:49.740Z,2.70
2022-11-20T06:09:20.063Z,3.27
2022-11-20T06:11:59.120Z,3.10
2022-11-20T06:14:28.034Z,3.23
2022-11-20T06:16:57.339Z,3.60
2022-11-20T06:22:13.727Z,4.43
2022-11-20T06:24:46.564Z,2.77
2022-11-20T06:27:18.777Z,2.67
2022-11-20T06:29:51.256Z,3.80
2022-11-20T06:32:20.901Z,2.80
2022-11-20T06:34:50.571Z,2.90
2022-11-20T07:24:50.369Z,2.30
2022-11-20T07:27:34.306Z,2.47
2022-11-20T07:30:08.085Z,3.30
2022-11-20T07:32:50.494Z,2.33
2022-11-20T07:35:23.408Z,1.60
2022-11-20T07:37:53.129Z,3.63
2022-11-20T07:40:23.622Z,5.33
2022-11-20T07:42:52.722Z,2.37
2022-11-20T07:45:23.630Z,3.17
2022-11-20T07:47:53.041Z,4.40
2022-11-20T07:50:23.321Z,3.83
2022-11-20T07:52:53.093Z,3.47
2022-11-20T07:55:24.172Z,7.47
2022-11-20T07:57:58.952Z,2.87
2022-11-20T08:00:28.582Z,7.83
2022-11-20T08:02:57.113Z,2.20
2022-11-20T08:05:25.510Z,3.23
2022-11-20T08:07:55.891Z,3.03
2022-11-20T08:10:33.493Z,3.50
2022-11-20T08:24:23.101Z,3.50
2022-11-20T09:59:23.139Z,1.90
2022-11-20T10:07:49.479Z,2.33
2022-11-20T10:10:24.580Z,3.67
2022-11-20T10:13:00.832Z,1.67
2022-11-20T10:15:43.203Z,2.00
2022-11-20T10:18:23.203Z,1.97
2022-11-20T10:21:03.586Z,2.00
2022-11-20T10:23:45.737Z,2.17
2022-11-20T10:26:30.988Z,2.23
2022-11-20T10:29:16.800Z,1.60
2022-11-20T10:32:03.001Z,2.17
2022-11-20T10:34:51.473Z,2.27
2022-11-20T10:37:42.559Z,5.47
2022-11-20T10:40:32.828Z,2.57
2022-11-20T10:43:29.545Z,2.30
2022-11-20T11:09:59.364Z,1.60
2022-11-20T11:12:32.855Z,2.43
2022-11-20T11:15:05.988Z,1.30
2022-11-20T11:17:36.749Z,1.90
2022-11-20T11:23:46.220Z,2.57
2022-11-20T11:26:39.937Z,3.33
2022-11-20T11:29:22.496Z,2.53
2022-11-20T11:32:01.785Z,2.63
2022-11-20T11:46:43.259Z,2.77
2022-11-20T11:52:29.346Z,1.53
2022-11-20T11:57:33.367Z,2.37
2022-11-20T12:00:14.049Z,3.30
2022-11-20T12:03:19.163Z,1.47
2022-11-20T12:06:05.892Z,1.60
2022-11-20T12:08:38.076Z,1.30
2022-11-20T12:14:15.338Z,2.63
2022-11-20T12:16:45.449Z,2.30
2022-11-20T12:25:10.145Z,1.50
2022-11-20T12:28:15.684Z,1.90
2022-11-20T12:30:55.964Z,2.90
2022-11-20T12:33:36.704Z,3.13
2022-11-20T12:36:15.903Z,2.43
2022-11-20T12:48:46.082Z,1.60
2022-11-20T12:51:48.369Z,1.83
2022-11-20T12:54:43.193Z,1.57
2022-11-20T12:57:25.632Z,1.50
2022-11-20T13:00:15.899Z,1.57
2022-11-20T13:03:20.780Z,1.53
2022-11-20T13:05:57.926Z,3.27
2022-11-20T13:08:29.852Z,2.23
2022-11-20T13:11:04.811Z,1.60
2022-11-20T13:13:49.305Z,1.67
2022-11-20T13:16:35.469Z,2.57
2022-11-20T13:22:01.527Z,3.43
2022-11-20T13:24:31.793Z,1.30
2022-11-20T13:27:09.119Z,1.47
2022-11-20T13:29:42.657Z,2.10
2022-11-20T13:32:29.545Z,2.40
2022-11-20T13:35:04.465Z,1.50
2022-11-20T13:37:35.172Z,2.47
2022-11-20T13:40:35.842Z,1.90
2022-11-20T13:43:17.753Z,4.17
2022-11-20T13:45:58.261Z,4.23
2022-11-20T13:55:06.863Z,3.17
2022-11-20T14:01:01.241Z,2.33
2022-11-20T14:12:21.264Z,3.67
2022-11-20T14:17:50.418Z,3.40
2022-11-20T14:23:08.680Z,2.70
2022-11-20T14:25:43.624Z,3.70
2022-11-20T14:28:24.354Z,2.03
2022-11-20T14:30:55.615Z,2.70
2022-11-20T14:33:26.306Z,2.23
2022-11-20T14:35:56.654Z,4.33
2022-11-20T14:41:20.520Z,3.00
2022-11-20T14:43:50.261Z,3.40
2022-11-20T14:46:18.820Z,2.90
2022-11-20T14:48:53.907Z,2.37
2022-11-20T14:51:35.054Z,2.37
2022-11-20T14:54:16.648Z,3.70
2022-11-20T14:56:56.639Z,2.67
2022-11-20T14:59:34.115Z,2.20
2022-11-20T15:02:05.326Z,1.50
2022-11-20T15:04:34.691Z,1.50
2022-11-20T15:07:05.920Z,3.43
2022-11-20T15:12:22.976Z,1.20
2022-11-20T15:15:05.752Z,1.80
2022-11-20T15:17:38.848Z,1.20
2022-11-20T15:20:30.165Z,4.07
2022-11-20T15:23:02.710Z,1.87
2022-11-20T15:25:43.092Z,2.13
2022-11-20T15:28:24.579Z,1.60
2022-11-20T15:30:56.134Z,2.13
2022-11-20T15:36:35.414Z,1.40
2022-11-20T15:39:08.921Z,4.00
2022-11-20T15:41:49.621Z,1.67
2022-11-20T15:44:39.739Z,1.30
2022-11-20T15:47:29.439Z,3.27
2022-11-20T16:05:19.462Z,1.73
2022-11-20T16:07:48.737Z,3.57
2022-11-20T16:10:19.432Z,1.43
2022-11-20T16:13:05.941Z,4.47
2022-11-20T16:21:50.926Z,1.73
2022-11-20T16:24:24.709Z,3.90
2022-11-20T16:26:54.574Z,3.13
2022-11-20T16:29:24.507Z,2.57
2022-11-20T16:31:54.087Z,3.37
2022-11-20T16:34:23.026Z,3.67
2022-11-20T16:39:52.681Z,1.97
2022-11-20T16:42:24.559Z,2.27
2022-11-20T16:44:56.833Z,3.37
2022-11-20T16:47:33.594Z,3.87
2022-11-20T16:53:23.306Z,4.27
2022-11-20T16:55:56.800Z,5.47
2022-11-20T17:04:44.470Z,4.63
2022-11-20T17:17:29.408Z,6.10
2022-11-20T17:32:51.138Z,4.03
2022-11-20T17:35:45.508Z,4.63
2022-11-20T17:38:15.551Z,3.90
2022-11-20T17:52:03.451Z,6.50
2022-11-20T17:57:44.367Z,5.17
2022-11-20T18:03:16.917Z,7.43
2022-11-20T18:14:55.302Z,7.20
2022-11-20T18:26:28.002Z,5.27
2022-11-20T18:28:57.030Z,4.90
2022-11-20T18:31:32.270Z,8.03
2022-11-20T18:34:00.930Z,6.03
2022-11-20T18:36:30.791Z,6.47
2022-11-20T18:39:01.715Z,4.50
2022-11-20T18:47:53.252Z,8.53
2022-11-20T18:56:11.123Z,5.67
2022-11-20T18:58:43.596Z,6.33
2022-11-20T19:01:19.805Z,4.33
2022-11-20T19:03:52.717Z,5.07
2022-11-20T19:06:22.078Z,3.20
2022-11-20T19:08:55.487Z,5.70
2022-11-20T19:11:24.466Z,4.80
2022-11-20T19:13:57.969Z,4.77
2022-11-20T19:22:11.382Z,4.77
2022-11-20T19:24:39.784Z,4.13
2022-11-20T19:27:07.983Z,3.77
2022-11-20T19:29:36.655Z,5.50
2022-11-20T19:34:51.419Z,5.63
2022-11-20T19:37:24.076Z,8.47
2022-11-20T19:39:52.900Z,4.70
2022-11-20T19:42:39.547Z,5.93
2022-11-20T19:45:09.081Z,5.67
2022-11-20T19:48:07.387Z,6.30
2022-11-20T19:50:29.857Z,7.10
2022-11-20T19:52:59.097Z,7.37
2022-11-20T19:55:27.910Z,5.77
2022-11-20T19:57:56.809Z,5.93
2022-11-20T20:00:31.159Z,5.33
2022-11-20T20:08:39.436Z,6.43
2022-11-20T20:11:15.394Z,6.13
2022-11-20T20:16:31.492Z,4.67
2022-11-20T20:19:04.313Z,6.30
2022-11-20T20:21:35.564Z,5.07
2022-11-20T20:24:05.473Z,3.90
2022-11-20T20:26:34.719Z,4.73
2022-11-20T20:29:03.508Z,5.90
2022-11-20T20:31:34.125Z,4.47
2022-11-20T20:34:05.878Z,4.47
2022-11-20T20:36:35.889Z,4.83
2022-11-20T20:39:04.893Z,4.67
2022-11-20T20:41:33.631Z,5.23
2022-11-20T20:44:20.541Z,7.20
2022-11-20T20:46:49.160Z,5.87
2022-11-20T20:49:17.813Z,4.23
2022-11-20T20:51:48.285Z,4.80
2022-11-20T20:54:16.840Z,5.00
2022-11-20T20:56:45.796Z,3.67
2022-11-20T20:59:14.611Z,3.27
2022-11-20T21:01:43.355Z,4.13
2022-11-20T21:04:13.336Z,5.90
2022-11-20T21:06:42.326Z,5.93
2022-11-20T21:12:09.144Z,7.63
2022-11-20T21:14:37.767Z,3.23
2022-11-20T21:17:09.655Z,3.40
2022-11-20T21:19:42.270Z,3.37
2022-11-20T21:22:09.897Z,3.60
2022-11-20T21:24:40.652Z,2.67
2022-11-20T21:27:09.282Z,3.57
2022-11-20T21:29:38.130Z,4.47
2022-11-20T21:32:12.761Z,4.33
2022-11-20T21:34:41.045Z,3.17
2022-11-20T21:37:10.149Z,4.60
2022-11-20T21:39:50.875Z,6.90
2022-11-20T21:42:19.692Z,2.63
2022-11-20T21:44:48.366Z,2.13
2022-11-20T21:47:16.795Z,3.57
2022-11-20T21:49:45.223Z,2.30
2022-11-20T21:52:14.437Z,3.13
2022-11-20T21:54:44.385Z,3.37
2022-11-20T21:57:12.783Z,2.80
2022-11-20T21:59:41.350Z,2.33
2022-11-20T22:02:12.239Z,1.70
2022-11-20T22:04:41.791Z,2.00
2022-11-20T22:07:10.581Z,2.20
2022-11-20T22:09:39.139Z,2.57
2022-11-20T22:12:09.040Z,2.33
2022-11-20T22:14:36.612Z,2.70
2022-11-20T22:17:04.956Z,1.63
2022-11-20T22:19:33.442Z,2.90
2022-11-20T22:22:01.833Z,2.00
2022-11-20T22:24:32.017Z,2.27
2022-11-20T22:27:00.545Z,2.40
2022-11-20T22:29:31.608Z,2.20
2022-11-20T22:32:01.066Z,2.50
2022-11-20T22:34:29.572Z,2.63
2022-11-20T22:36:58.191Z,1.70
2022-11-20T22:39:26.789Z,2.50
2022-11-20T22:41:55.106Z,2.53
2022-11-20T22:44:23.785Z,2.90
2022-11-20T22:46:54.883Z,3.50
2022-11-20T22:49:24.757Z,2.33
2022-11-20T22:51:53.494Z,1.73
2022-11-20T22:54:24.636Z,2.47
2022-11-20T22:56:57.893Z,2.03
2022-11-20T22:59:26.704Z,1.80
2022-11-20T23:01:56.812Z,2.43
2022-11-20T23:04:25.992Z,1.93
2022-11-20T23:06:54.783Z,1.30
2022-11-20T23:09:23.506Z,2.87
2022-11-20T23:11:51.940Z,1.30
2022-11-20T23:14:24.937Z,2.13
2022-11-20T23:16:57.626Z,1.57
2022-11-20T23:19:26.391Z,2.23
2022-11-20T23:21:55.039Z,2.60
2022-11-20T23:24:24.456Z,1.87
2022-11-20T23:26:53.719Z,1.13
2022-11-20T23:29:22.196Z,1.60
2022-11-20T23:31:50.783Z,1.77
2022-11-20T23:34:20.960Z,0.97
2022-11-20T23:36:49.563Z,1.37
2022-11-20T23:39:18.026Z,1.17
2022-11-20T23:41:46.715Z,0.90
2022-11-20T23:44:15.229Z,0.70
2022-11-20T23:46:44.029Z,1.20
2022-11-20T23:49:12.779Z,0.80
2022-11-20T23:51:43.062Z,0.63
2022-11-20T23:54:11.686Z,0.70
2022-11-20T23:56:40.144Z,0.67
2022-11-20T23:59:08.780Z,0.73
